Terminal Aerodrome Forecast
Issued by NWS Twin Cities, MN

Home | Current Version | Previous Version | Graphics & Text | Print | Product List | Glossary On
Versions: 1 2 3 4 5 6 7 8 9 10 11 12 13 14 15 16 17 18 19 20
000
FTUS43 KMPX 280520
TAFEAU
TAF
KEAU 280520Z 2806/2906 VRB05KT 4SM BR BKN006 OVC025
     FM280900 14004KT 2SM BR VCSH OVC006
     FM281400 15004KT 6SM -SHRA BR OVC015
     FM281800 19009KT P6SM SCT020 BKN060 PROB30 2823/2903 5SM -SHRA
      OVC050=

USA.gov is the U.S. government's official web portal to all federal, state and local government web resources and services.